Time;durP1;ratioP1;P1;durP2;ratioP2;P2;SDS_P1;SDS_P2;PMS_P1;PMS_P2;Temp;Humidity;BMP_temperature;BMP_pressure;BME280_temperature;BME280_humidity;BME280_pressure;Samples;Min_cycle;Max_cycle;Signal;HPM_P1;HPM_P2
2023/08/10 00:00:14;;;;;;;2.90;1.60;;;17.30;99.90;;;17.62;82.97;101001.28;5024840;28;20716;-66
2023/08/10 00:02:42;;;;;;;1.20;1.10;;;17.30;99.90;;;17.56;83.11;100999.22;5018388;28;20724;-67
2023/08/10 00:05:10;;;;;;;1.50;1.40;;;17.20;99.90;;;17.52;83.13;100996.06;5023060;28;21057;-67
2023/08/10 00:07:38;;;;;;;1.67;1.57;;;17.20;99.90;;;17.49;83.42;101004.22;5034596;28;20759;-66
2023/08/10 00:10:08;;;;;;;1.40;1.40;;;17.20;99.90;;;17.49;83.30;101001.56;5029814;28;21189;-66
2023/08/10 00:12:37;;;;;;;1.10;1.10;;;17.20;99.90;;;17.50;83.34;100999.81;5032353;28;21272;-66
2023/08/10 00:15:05;;;;;;;1.20;1.20;;;17.20;99.90;;;17.49;83.28;100992.81;5050536;28;20760;-66
2023/08/10 00:17:33;;;;;;;1.07;1.07;;;17.10;99.90;;;17.43;82.94;100996.06;5028671;28;20667;-67
2023/08/10 00:20:00;;;;;;;1.20;1.20;;;17.10;99.90;;;17.40;82.66;100999.81;5033656;28;21422;-66
2023/08/10 00:22:27;;;;;;;1.70;1.60;;;17.10;99.90;;;17.37;82.92;101001.91;5024011;28;20641;-67
2023/08/10 00:24:54;;;;;;;1.33;1.33;;;17.00;99.90;;;17.35;83.31;100996.78;5025648;28;20731;-65
2023/08/10 00:27:22;;;;;;;1.50;1.40;;;17.00;99.90;;;17.37;83.72;101009.81;5031914;28;20632;-66
2023/08/10 00:29:49;;;;;;;1.30;1.30;;;17.00;99.90;;;17.38;83.89;101011.47;5026283;28;21241;-67
2023/08/10 00:32:16;;;;;;;1.90;1.53;;;17.00;99.90;;;17.38;83.61;101006.19;5031025;28;20675;-67
2023/08/10 00:34:43;;;;;;;1.47;1.37;;;17.00;99.90;;;17.37;83.64;101009.81;5031084;28;20660;-67
2023/08/10 00:37:10;;;;;;;1.17;1.17;;;17.10;99.90;;;17.37;83.66;101009.81;5036215;28;20673;-66
2023/08/10 00:39:36;;;;;;;1.63;1.53;;;17.00;99.90;;;17.38;83.45;101006.19;5033553;28;21271;-67
2023/08/10 00:42:04;;;;;;;1.30;1.30;;;17.00;99.90;;;17.39;83.67;100999.97;5033011;28;21298;-67
2023/08/10 00:44:31;;;;;;;1.40;1.30;;;17.10;99.90;;;17.37;83.49;100999.28;5035220;28;20634;-67
2023/08/10 00:46:59;;;;;;;1.50;1.40;;;17.00;99.90;;;17.34;83.54;101005.66;5034360;28;20627;-66
2023/08/10 00:49:26;;;;;;;1.63;1.53;;;17.00;99.90;;;17.32;83.74;101001.50;5045268;28;20727;-66
2023/08/10 00:51:53;;;;;;;1.30;1.30;;;17.00;99.90;;;17.27;83.60;101004.56;5026612;28;20727;-67
2023/08/10 00:54:20;;;;;;;1.40;1.30;;;16.90;99.90;;;17.20;83.90;101003.50;5030131;28;20724;-66
2023/08/10 00:56:50;;;;;;;1.90;1.30;;;16.90;99.90;;;17.17;83.98;101006.41;5027103;28;20698;-66
2023/08/10 00:59:17;;;;;;;1.50;1.40;;;16.80;99.90;;;17.12;84.36;101011.31;5030956;28;20775;-67
2023/08/10 01:01:45;;;;;;;1.50;1.40;;;16.80;99.90;;;17.05;84.25;101005.78;5033433;28;20647;-67
2023/08/10 01:04:12;;;;;;;1.67;1.57;;;16.70;99.90;;;16.98;84.43;101011.75;5023434;28;20645;-67
2023/08/10 01:07:19;;;;;;;1.80;1.70;;;16.70;99.90;;;16.93;84.95;101006.06;5017908;28;20641;-66
2023/08/10 01:10:13;;;;;;;1.70;1.50;;;16.60;99.90;;;16.93;85.09;101004.25;5042062;28;20720;-65
2023/08/10 01:12:57;;;;;;;1.77;1.67;;;16.60;99.90;;;16.96;85.39;101000.50;5035068;28;20682;-67
2023/08/10 01:15:38;;;;;;;1.43;1.37;;;16.60;99.90;;;16.99;85.25;101001.03;5027846;28;20648;-66
2023/08/10 01:18:11;;;;;;;1.40;1.30;;;16.70;99.90;;;17.00;85.10;101008.00;5017667;28;20715;-67
2023/08/10 01:20:41;;;;;;;1.70;1.60;;;16.70;99.90;;;17.01;85.24;101006.19;5025800;28;20664;-67
2023/08/10 01:23:23;;;;;;;1.23;1.23;;;16.70;99.90;;;17.01;84.46;101004.38;5024806;28;20633;-66
2023/08/10 01:25:51;;;;;;;1.73;1.63;;;16.70;99.90;;;17.01;84.86;101007.00;5027058;28;20686;-66
2023/08/10 01:28:19;;;;;;;1.97;1.70;;;16.70;99.90;;;17.01;84.81;101011.47;5036480;28;21245;-66
2023/08/10 01:30:46;;;;;;;1.47;1.47;;;16.70;99.90;;;17.01;84.90;101009.63;5031075;28;20642;-65
2023/08/10 01:33:13;;;;;;;1.37;1.37;;;16.70;99.90;;;17.00;84.61;101013.25;5024595;28;20688;-66
2023/08/10 01:35:40;;;;;;;2.07;1.53;;;16.70;99.90;;;16.99;84.94;101022.13;5027571;28;20648;-66
2023/08/10 01:38:07;;;;;;;1.33;1.33;;;16.70;99.90;;;16.98;84.93;101023.13;5030994;28;20655;-67
2023/08/10 01:40:34;;;;;;;1.27;1.27;;;16.60;99.90;;;16.98;85.00;101028.38;5030628;28;20790;-66
2023/08/10 01:43:02;;;;;;;1.73;1.63;;;16.60;99.90;;;16.98;84.67;101036.31;5019707;28;20632;-66
2023/08/10 01:45:30;;;;;;;1.50;1.30;;;16.60;99.90;;;16.98;84.77;101035.47;5031721;28;20632;-66
2023/08/10 01:48:09;;;;;;;1.30;1.30;;;16.60;99.90;;;16.93;84.66;101033.25;5027527;28;20714;-67
2023/08/10 01:50:41;;;;;;;1.40;1.40;;;16.60;99.90;;;16.88;84.01;101040.75;5032745;28;20626;-66
2023/08/10 01:53:18;;;;;;;1.63;1.53;;;16.60;99.90;;;16.80;83.96;101043.25;5046397;28;20631;-68
2023/08/10 01:55:45;;;;;;;1.90;1.80;;;16.50;99.90;;;16.77;84.61;101042.69;5024859;28;21273;-66
2023/08/10 01:58:12;;;;;;;1.23;1.23;;;16.50;99.90;;;16.74;84.64;101028.00;5038468;28;20671;-66
2023/08/10 02:00:40;;;;;;;1.70;1.60;;;16.40;99.90;;;16.72;84.55;101032.59;5030519;28;20664;-66
2023/08/10 02:03:07;;;;;;;1.73;1.63;;;16.40;99.90;;;16.72;85.02;101024.69;5025815;28;20728;-65
2023/08/10 02:05:34;;;;;;;2.40;2.20;;;16.40;99.90;;;16.74;85.18;101027.16;5029365;28;20639;-64
2023/08/10 02:08:01;;;;;;;2.27;2.07;;;16.40;99.90;;;16.75;85.10;101029.69;5022458;28;20648;-66
2023/08/10 02:10:28;;;;;;;2.37;2.23;;;16.40;99.90;;;16.75;85.57;101032.31;5023143;28;20717;-67
2023/08/10 02:12:55;;;;;;;1.80;1.70;;;16.40;99.90;;;16.76;85.05;101031.31;5027252;28;20828;-66
2023/08/10 02:15:22;;;;;;;3.43;2.07;;;16.40;99.90;;;16.73;85.88;101036.91;5033054;28;20637;-67
2023/08/10 02:17:49;;;;;;;2.73;2.53;;;16.40;99.90;;;16.73;85.60;101034.25;5027898;28;21298;-66
2023/08/10 02:20:16;;;;;;;2.50;2.40;;;16.40;99.90;;;16.73;85.75;101034.25;5021700;28;21288;-67
2023/08/10 02:22:49;;;;;;;3.47;2.57;;;16.40;99.90;;;16.75;85.99;101034.09;5028958;28;20735;-67
2023/08/10 02:25:18;;;;;;;4.87;2.93;;;16.40;99.90;;;16.77;85.98;101032.16;5026633;28;20736;-67
2023/08/10 02:27:46;;;;;;;3.33;2.80;;;16.40;99.90;;;16.77;86.17;101025.09;5022645;28;20664;-66
2023/08/10 02:30:14;;;;;;;2.23;2.10;;;16.50;99.90;;;16.78;86.05;101034.66;5023848;28;20702;-66
2023/08/10 02:32:41;;;;;;;3.80;2.87;;;16.50;99.90;;;16.74;86.18;101041.19;5028986;28;20675;-66
2023/08/10 02:35:09;;;;;;;2.00;1.90;;;16.40;99.90;;;16.75;86.20;101039.38;5027644;28;21139;-67
2023/08/10 02:37:37;;;;;;;3.07;2.33;;;16.40;99.90;;;16.77;86.49;101040.91;5020854;28;21094;-67
2023/08/10 02:40:07;;;;;;;3.07;2.77;;;16.40;99.90;;;16.79;86.21;101046.88;5030372;28;20664;-66
2023/08/10 02:42:34;;;;;;;2.60;2.50;;;16.50;99.90;;;16.79;86.67;101035.50;5011349;28;20639;-64
2023/08/10 02:45:02;;;;;;;2.73;2.53;;;16.50;99.90;;;16.79;86.72;101038.13;5031086;28;20624;-66
2023/08/10 02:47:28;;;;;;;2.63;2.43;;;16.50;99.90;;;16.77;86.43;101025.09;5029272;28;20640;-67
2023/08/10 02:49:55;;;;;;;2.30;2.17;;;16.50;99.90;;;16.78;86.99;101034.66;5021356;28;20644;-67
2023/08/10 02:52:22;;;;;;;2.00;1.90;;;16.50;99.90;;;16.77;86.98;101033.00;5028506;28;20653;-65
2023/08/10 02:54:49;;;;;;;3.50;2.40;;;16.50;99.90;;;16.73;87.61;101029.00;5007773;28;20644;-67
2023/08/10 02:57:16;;;;;;;2.70;2.30;;;16.40;99.90;;;16.73;87.41;101036.91;5017758;28;20659;-66
2023/08/10 02:59:43;;;;;;;2.87;2.67;;;16.40;99.90;;;16.72;87.67;101034.38;5022991;28;21096;-67
2023/08/10 03:02:10;;;;;;;1.90;1.80;;;16.40;99.90;;;16.71;88.46;101030.94;5030035;28;20682;-66
2023/08/10 03:04:37;;;;;;;2.60;2.43;;;16.40;99.90;;;16.71;88.47;101025.66;5027161;28;20773;-67
2023/08/10 03:07:04;;;;;;;2.53;2.23;;;16.40;99.90;;;16.71;88.50;101030.94;5020460;28;20737;-67
2023/08/10 03:09:31;;;;;;;2.33;2.13;;;16.40;99.90;;;16.73;88.78;101038.69;5026355;28;21084;-66
2023/08/10 03:11:58;;;;;;;2.93;2.63;;;16.40;99.90;;;16.72;88.79;101040.47;5011785;28;20716;-67
2023/08/10 03:14:25;;;;;;;2.97;2.67;;;16.40;99.90;;;16.71;88.86;101036.19;5013349;28;20668;-68
2023/08/10 03:16:52;;;;;;;2.40;2.20;;;16.40;99.90;;;16.71;88.78;101038.84;5012772;28;21232;-66
2023/08/10 03:19:19;;;;;;;2.60;2.40;;;16.40;99.90;;;16.70;89.06;101037.16;5013715;28;20700;-66
2023/08/10 03:21:46;;;;;;;2.77;2.47;;;16.40;99.90;;;16.71;88.94;101036.19;5020136;28;20638;-66
2023/08/10 03:24:14;;;;;;;2.20;2.10;;;16.40;99.90;;;16.74;89.24;101048.25;5024856;28;20731;-67
2023/08/10 03:26:40;;;;;;;2.67;2.47;;;16.40;99.90;;;16.73;89.66;101046.59;5021468;28;20626;-67
2023/08/10 03:29:07;;;;;;;2.57;2.47;;;16.40;99.90;;;16.72;89.46;101053.66;5029865;28;20731;-67
2023/08/10 03:31:34;;;;;;;3.53;3.07;;;16.40;99.90;;;16.73;89.84;101055.34;5028184;28;21189;-66
2023/08/10 03:34:01;;;;;;;2.70;2.50;;;16.40;99.90;;;16.74;89.97;101059.63;5020189;28;21207;-67
2023/08/10 03:36:28;;;;;;;4.53;2.40;;;16.40;99.90;;;16.73;90.13;101057.97;5012154;28;20641;-67
2023/08/10 03:38:55;;;;;;;2.20;2.10;;;16.40;99.90;;;16.73;90.02;101059.78;5021528;28;20637;-67
2023/08/10 03:41:22;;;;;;;2.53;2.33;;;16.40;99.90;;;16.73;89.99;101055.34;5018451;28;20683;-67
2023/08/10 03:43:49;;;;;;;2.47;2.30;;;16.40;99.90;;;16.75;89.49;101060.47;5029528;28;20765;-66
2023/08/10 03:46:16;;;;;;;2.17;2.07;;;16.40;99.90;;;16.73;89.65;101052.72;5026360;28;20644;-66
2023/08/10 03:48:43;;;;;;;2.33;2.13;;;16.40;99.90;;;16.74;89.49;101040.34;5023716;28;20664;-67
2023/08/10 03:51:10;;;;;;;1.83;1.70;;;16.40;99.90;;;16.70;89.49;101039.78;5020225;28;20736;-66
2023/08/10 03:53:36;;;;;;;2.10;2.00;;;16.40;99.90;;;16.70;89.23;101041.59;5027113;28;20719;-67
2023/08/10 03:56:03;;;;;;;2.50;2.40;;;16.40;99.90;;;16.65;88.96;101038.56;5019541;28;20647;-66
2023/08/10 03:58:30;;;;;;;3.27;1.93;;;16.40;99.90;;;16.62;88.75;101041.47;5025669;28;20657;-66
2023/08/10 04:00:57;;;;;;;2.67;2.10;;;16.30;99.90;;;16.60;88.77;101040.78;5028848;28;20772;-66
2023/08/10 04:03:24;;;;;;;1.73;1.70;;;16.30;99.90;;;16.59;88.61;101041.75;5026300;28;21087;-66
2023/08/10 04:05:51;;;;;;;2.90;2.20;;;16.30;99.90;;;16.56;88.64;101039.38;5028370;28;20628;-66
2023/08/10 04:08:18;;;;;;;2.33;2.13;;;16.30;99.90;;;16.57;88.76;101039.25;5029745;28;20648;-67
2023/08/10 04:10:45;;;;;;;2.90;2.53;;;16.20;99.90;;;16.56;88.10;101040.22;5018599;28;21279;-66
2023/08/10 04:13:12;;;;;;;2.60;2.40;;;16.30;99.90;;;16.59;88.63;101044.41;5029268;28;20636;-65
2023/08/10 04:15:39;;;;;;;1.80;1.73;;;16.30;99.90;;;16.58;88.74;101048.81;5027582;28;20686;-66
2023/08/10 04:18:06;;;;;;;2.13;2.03;;;16.30;99.90;;;16.60;89.02;101059.22;5024772;28;20656;-67
2023/08/10 04:20:33;;;;;;;2.40;2.30;;;16.30;99.90;;;16.62;89.02;101057.28;5026082;28;20672;-67
2023/08/10 04:23:00;;;;;;;2.70;2.23;;;16.30;99.90;;;16.63;89.25;101062.38;5029580;28;20648;-64
2023/08/10 04:25:27;;;;;;;3.13;1.80;;;16.30;99.90;;;16.67;89.24;101079.63;5017230;28;20649;-67
2023/08/10 04:27:54;;;;;;;2.37;2.27;;;16.30;99.90;;;16.70;88.92;101076.69;5025460;28;20640;-65
2023/08/10 04:30:22;;;;;;;2.00;1.90;;;16.40;99.90;;;16.73;88.87;101081.69;5017956;28;21093;-67
2023/08/10 04:32:49;;;;;;;2.00;1.90;;;16.40;99.90;;;16.75;88.31;101074.47;5026005;28;20631;-65
2023/08/10 04:35:16;;;;;;;1.80;1.70;;;16.50;99.90;;;16.79;87.74;101075.84;5023611;28;20722;-67
2023/08/10 04:37:43;;;;;;;2.17;1.90;;;16.50;99.90;;;16.84;87.11;101076.28;5027455;28;20679;-67
2023/08/10 04:40:10;;;;;;;1.93;1.80;;;16.50;99.90;;;16.84;86.86;101078.91;5025196;28;21049;-64
2023/08/10 04:42:40;;;;;;;1.80;1.70;;;16.50;99.90;;;16.88;86.77;101071.56;5028050;28;20997;-65
2023/08/10 04:45:09;;;;;;;2.00;1.90;;;16.60;99.90;;;16.88;86.05;101077.66;5020072;28;20648;-65
2023/08/10 04:47:37;;;;;;;1.93;1.83;;;16.60;99.90;;;16.93;85.83;101080.69;5016858;28;21044;-64
2023/08/10 04:50:05;;;;;;;1.83;1.73;;;16.60;99.90;;;16.97;85.45;101081.25;5018378;28;20652;-67
2023/08/10 04:52:32;;;;;;;2.00;1.80;;;16.60;99.90;;;16.99;84.89;101080.13;5025367;28;21209;-65
2023/08/10 04:54:59;;;;;;;2.03;1.70;;;16.70;99.90;;;17.03;84.64;101075.44;5019121;28;21277;-63
2023/08/10 04:57:26;;;;;;;1.87;1.77;;;16.70;99.90;;;17.05;84.22;101084.03;5017981;28;20758;-65
2023/08/10 04:59:53;;;;;;;2.17;2.07;;;16.70;99.90;;;17.06;84.04;101089.16;5027335;28;20707;-64
2023/08/10 05:02:20;;;;;;;2.40;2.20;;;16.70;99.90;;;17.04;83.34;101087.63;5028419;28;20731;-64
2023/08/10 05:04:47;;;;;;;1.80;1.70;;;16.70;99.90;;;17.02;83.67;101084.28;5031918;28;20627;-65
2023/08/10 05:07:14;;;;;;;2.13;1.93;;;16.70;99.90;;;16.97;83.96;101084.72;5029159;28;20671;-65
2023/08/10 05:09:40;;;;;;;2.10;2.00;;;16.70;99.90;;;16.98;84.17;101081.13;5025246;28;20736;-64
2023/08/10 05:12:23;;;;;;;2.23;2.10;;;16.70;99.90;;;16.97;84.36;101079.44;5032039;28;20663;-65
2023/08/10 05:14:50;;;;;;;1.90;1.80;;;16.70;99.90;;;16.97;84.19;101083.91;5027476;28;20643;-65
2023/08/10 05:17:17;;;;;;;3.67;2.30;;;16.70;99.90;;;16.93;84.37;101088.59;5032267;28;20630;-65
2023/08/10 05:19:44;;;;;;;3.67;2.23;;;16.70;99.90;;;16.97;84.91;101097.09;5028061;28;20727;-62
2023/08/10 05:22:11;;;;;;;2.20;2.00;;;16.70;99.90;;;16.97;84.61;101095.25;5027192;28;21029;-64
2023/08/10 05:24:38;;;;;;;2.70;2.50;;;16.70;99.90;;;16.97;84.89;101097.88;5020311;28;20648;-69
2023/08/10 05:27:05;;;;;;;2.83;2.63;;;16.70;99.90;;;17.02;85.04;101100.94;5031586;28;20645;-64
2023/08/10 05:29:32;;;;;;;4.37;3.20;;;16.70;99.90;;;17.05;84.61;101100.69;5028585;28;20660;-65
2023/08/10 05:31:59;;;;;;;2.73;2.53;;;16.70;99.90;;;17.11;84.76;101104.56;5031946;28;21288;-65
2023/08/10 05:34:26;;;;;;;3.20;2.97;;;16.80;99.90;;;17.16;84.52;101107.59;5026038;28;20731;-65
2023/08/10 05:36:52;;;;;;;2.93;2.63;;;16.80;99.90;;;17.18;84.60;101110.09;5031312;28;20641;-64
2023/08/10 05:39:19;;;;;;;2.60;2.50;;;16.90;99.90;;;17.23;83.97;101123.69;5028308;28;20659;-62
2023/08/10 05:41:46;;;;;;;2.30;2.10;;;16.90;99.90;;;17.24;83.77;101120.06;5030795;28;21022;-65
2023/08/10 05:44:13;;;;;;;3.33;2.77;;;16.90;99.90;;;17.21;83.33;101118.53;5026439;28;20628;-65
2023/08/10 05:46:40;;;;;;;3.17;2.70;;;16.90;99.90;;;17.24;83.85;101120.06;5028238;28;20651;-65
2023/08/10 05:49:07;;;;;;;2.00;1.90;;;16.90;99.90;;;17.27;84.11;101125.09;5030406;28;20694;-65
2023/08/10 05:51:34;;;;;;;2.73;2.53;;;16.90;99.90;;;17.32;84.55;101130.75;5029102;28;20743;-64
2023/08/10 05:54:01;;;;;;;3.20;2.83;;;17.00;99.90;;;17.40;84.11;101128.25;5031852;28;20739;-64
2023/08/10 05:56:28;;;;;;;4.03;2.50;;;17.00;99.90;;;17.46;83.18;101125.03;5015589;28;21206;-66
2023/08/10 05:58:55;;;;;;;2.20;2.10;;;17.10;99.90;;;17.54;83.48;101133.94;5016841;28;21325;-65
2023/08/10 06:01:22;;;;;;;4.00;2.37;;;17.20;99.90;;;17.59;82.73;101125.59;5014287;28;20756;-65
2023/08/10 06:03:49;;;;;;;2.70;2.50;;;17.20;99.90;;;17.62;82.41;101131.41;5015368;28;20625;-65
2023/08/10 06:06:16;;;;;;;2.87;2.67;;;17.30;99.90;;;17.66;82.71;101126.66;5016871;28;21011;-66
2023/08/10 06:08:44;;;;;;;1.77;1.67;;;17.30;99.90;;;17.72;82.49;101126.09;5020326;28;20695;-65
2023/08/10 06:11:12;;;;;;;2.27;2.10;;;17.40;99.90;;;17.77;82.04;101123.84;5023250;28;20640;-65
2023/08/10 06:13:41;;;;;;;2.57;2.40;;;17.40;99.90;;;17.88;82.27;101128.97;5030264;28;20636;-65
2023/08/10 06:16:09;;;;;;;3.13;2.53;;;17.50;99.90;;;18.02;81.96;101132.91;5030957;28;20644;-66
2023/08/10 06:18:36;;;;;;;3.53;2.37;;;17.60;99.90;;;18.14;80.98;101129.97;5028649;28;20660;-65
2023/08/10 06:21:06;;;;;;;2.67;2.00;;;17.80;99.90;;;18.23;79.61;101136.19;5024264;28;20666;-65
2023/08/10 06:23:33;;;;;;;1.47;1.43;;;17.80;99.90;;;18.27;79.56;101138.34;5028125;28;20628;-65
2023/08/10 06:26:00;;;;;;;2.07;1.97;;;17.90;99.90;;;18.33;80.00;101142.22;5015876;28;20735;-65
2023/08/10 06:28:27;;;;;;;1.77;1.67;;;18.00;99.90;;;18.47;79.79;101139.09;5019129;28;20661;-65
2023/08/10 06:30:54;;;;;;;2.33;2.23;;;18.10;99.90;;;18.62;79.00;101145.56;5029751;28;20628;-65
2023/08/10 06:33:21;;;;;;;2.00;1.77;;;18.30;99.90;;;18.79;77.95;101147.38;5027901;28;21068;-65
2023/08/10 06:35:51;;;;;;;1.57;1.57;;;18.40;99.90;;;19.00;77.31;101141.78;5022145;28;20696;-66
2023/08/10 06:38:18;;;;;;;2.10;1.77;;;18.60;99.90;;;19.16;76.14;101148.06;5021745;28;20709;-64
2023/08/10 06:40:45;;;;;;;1.80;1.70;;;18.80;99.90;;;19.37;75.29;101144.25;5022163;28;20665;-66
2023/08/10 06:43:12;;;;;;;1.40;1.37;;;19.00;99.90;;;19.62;73.75;101152.22;5016917;28;20634;-66
2023/08/10 06:45:39;;;;;;;1.77;1.67;;;19.20;99.90;;;19.87;72.82;101148.72;5014817;28;20633;-65
2023/08/10 06:48:06;;;;;;;1.67;1.57;;;19.50;99.90;;;20.31;72.21;101148.63;5030007;28;20706;-65
2023/08/10 06:50:33;;;;;;;1.70;1.60;;;19.80;99.90;;;21.26;69.88;101165.72;5021608;28;20710;-66
2023/08/10 06:53:00;;;;;;;1.73;1.63;;;20.60;99.90;;;22.22;66.01;101153.25;5027237;28;20690;-66
2023/08/10 06:55:28;;;;;;;1.93;1.80;;;21.50;99.90;;;22.78;63.22;101152.13;5012938;28;20659;-66
2023/08/10 06:57:57;;;;;;;2.27;2.17;;;22.30;99.90;;;23.04;61.64;101161.41;5018375;28;21573;-67
2023/08/10 07:00:24;;;;;;;2.27;2.17;;;22.60;99.90;;;23.18;61.17;101157.16;5010709;28;20764;-65
2023/08/10 07:02:54;;;;;;;2.10;2.00;;;22.80;99.90;;;23.36;59.99;101155.00;5027879;28;20687;-66
2023/08/10 07:05:25;;;;;;;2.00;1.90;;;23.00;99.90;;;23.65;59.56;101160.41;5024920;28;21053;-66
2023/08/10 07:07:53;;;;;;;5.77;2.40;;;23.20;99.90;;;24.27;57.46;101158.22;5021521;28;20746;-65
2023/08/10 07:10:20;;;;;;;1.90;1.80;;;23.80;99.90;;;24.92;55.71;101163.50;5026319;28;21201;-66
2023/08/10 07:12:47;;;;;;;1.90;1.80;;;24.40;99.90;;;25.40;53.95;101159.19;5028282;28;20624;-68
2023/08/10 07:15:14;;;;;;;2.10;2.00;;;25.00;99.90;;;25.96;52.68;101162.69;5019137;28;20664;-64
2023/08/10 07:17:41;;;;;;;2.67;2.47;;;25.50;99.90;;;26.85;50.25;101159.78;5027121;28;21299;-66
2023/08/10 07:20:09;;;;;;;1.87;1.77;;;26.30;99.90;;;28.04;47.69;101169.47;5029553;28;20996;-66
2023/08/10 07:22:36;;;;;;;2.07;1.53;;;27.40;99.90;;;29.26;45.20;101156.63;5025798;28;20740;-67
2023/08/10 07:25:07;;;;;;;2.03;1.83;;;28.70;99.50;;;30.50;42.62;101154.47;5026935;28;20735;-67
2023/08/10 07:27:34;;;;;;;1.97;1.87;;;29.90;97.10;;;31.44;40.80;101159.91;5018896;28;20715;-66
2023/08/10 07:30:03;;;;;;;2.47;2.27;;;30.90;94.30;;;32.39;38.05;101163.88;5024143;28;21260;-67
2023/08/10 07:32:31;;;;;;;2.90;2.00;;;31.90;91.00;;;33.06;37.36;101158.66;5022498;28;20737;-66
2023/08/10 07:34:58;;;;;;;2.43;1.80;;;32.60;86.60;;;33.73;35.85;101168.41;5021978;28;20636;-66
2023/08/10 07:37:25;;;;;;;1.90;1.80;;;33.30;82.10;;;34.32;34.73;101167.56;5026326;28;20686;-67
2023/08/10 07:39:52;;;;;;;2.07;1.97;;;33.90;77.90;;;34.72;34.20;101163.66;5023884;28;20755;-66
2023/08/10 07:42:19;;;;;;;2.57;2.40;;;34.40;74.80;;;35.07;33.17;101172.16;5024790;28;20668;-66
2023/08/10 07:44:46;;;;;;;2.07;1.97;;;34.80;71.90;;;35.62;32.73;101172.59;5020128;28;20984;-66
2023/08/10 07:47:14;;;;;;;2.30;2.10;;;35.30;70.20;;;35.89;32.25;101180.59;5023305;28;20636;-68
2023/08/10 07:49:43;;;;;;;2.43;2.23;;;35.70;67.30;;;35.99;31.49;101172.56;5026769;28;21189;-66
2023/08/10 07:52:10;;;;;;;2.00;1.90;;;35.90;65.70;;;36.11;31.53;101175.03;5032840;28;20627;-66
2023/08/10 07:54:38;;;;;;;2.47;2.37;;;36.00;64.40;;;36.10;31.26;101170.69;5021336;28;20704;-65
2023/08/10 07:57:05;;;;;;;2.00;1.80;;;36.20;63.50;;;36.06;31.73;101164.13;5018887;28;21014;-67
2023/08/10 07:59:32;;;;;;;2.40;2.30;;;36.20;62.70;;;36.25;31.55;101168.00;5024769;28;20668;-67
2023/08/10 08:01:58;;;;;;;2.30;2.20;;;36.40;62.10;;;36.38;30.66;101160.19;5026149;28;20664;-66
2023/08/10 08:04:26;;;;;;;1.97;1.97;;;36.60;61.20;;;36.33;31.03;101162.88;5025162;28;20723;-67
2023/08/10 08:06:53;;;;;;;2.00;1.83;;;36.70;60.70;;;36.32;30.60;101161.25;5026890;28;21193;-67
2023/08/10 08:09:20;;;;;;;1.50;1.50;;;36.70;59.90;;;36.67;30.57;101159.72;5025882;28;21318;-66
2023/08/10 08:11:47;;;;;;;2.03;1.93;;;36.80;59.10;;;37.02;29.82;101157.06;5023981;28;20640;-67
2023/08/10 08:14:14;;;;;;;1.70;1.60;;;37.20;58.50;;;37.17;29.52;101143.44;5028781;28;21277;-67
2023/08/10 08:16:41;;;;;;;2.27;2.17;;;37.40;57.60;;;37.68;28.49;101155.91;5016536;28;20728;-67
2023/08/10 08:19:08;;;;;;;1.60;1.60;;;37.70;56.70;;;37.70;28.65;101161.88;5024786;28;21276;-65
2023/08/10 08:21:35;;;;;;;2.30;2.20;;;37.80;56.10;;;37.79;28.15;101152.09;5018100;28;20696;-67
2023/08/10 08:24:03;;;;;;;4.83;2.60;;;37.80;55.70;;;37.88;27.45;101155.03;5015978;28;21036;-67
2023/08/10 08:26:32;;;;;;;2.10;2.00;;;37.90;54.40;;;38.07;27.12;101147.88;5025809;28;21140;-68
2023/08/10 08:28:59;;;;;;;2.50;2.30;;;37.90;54.10;;;38.46;26.96;101145.25;5024203;28;21018;-67
2023/08/10 08:31:26;;;;;;;2.10;2.00;;;38.20;53.90;;;38.46;26.96;101140.59;5030594;28;20639;-65
2023/08/10 08:33:54;;;;;;;2.20;2.10;;;38.40;53.40;;;38.72;27.04;101143.97;5019442;28;20668;-66
2023/08/10 08:36:21;;;;;;;2.60;2.40;;;38.50;53.40;;;38.96;26.73;101141.34;5021529;28;21052;-66
2023/08/10 08:38:48;;;;;;;2.30;2.20;;;38.80;53.20;;;38.77;26.71;101144.78;5017946;28;21044;-67
2023/08/10 08:41:18;;;;;;;2.63;2.43;;;39.00;52.30;;;38.41;27.62;101145.25;5017504;28;20696;-67
2023/08/10 08:43:47;;;;;;;3.20;2.90;;;38.60;53.20;;;38.18;27.80;101140.47;5015446;28;20636;-66
2023/08/10 08:46:16;;;;;;;2.70;2.60;;;38.30;52.60;;;37.84;27.29;101138.47;5012807;28;20641;-68
2023/08/10 08:48:43;;;;;;;3.43;3.23;;;38.00;52.50;;;37.72;28.21;101132.47;5014106;28;20657;-67
2023/08/10 08:51:11;;;;;;;2.90;2.80;;;37.80;52.70;;;38.12;27.67;101131.53;5020284;28;20667;-68
2023/08/10 08:53:39;;;;;;;2.93;2.83;;;38.10;52.40;;;38.35;27.14;101138.22;5038859;28;20641;-68
2023/08/10 08:56:07;;;;;;;2.67;2.57;;;38.40;52.30;;;38.61;26.65;101142.41;5002120;28;20637;-65
2023/08/10 08:58:33;;;;;;;3.10;2.97;;;38.60;52.10;;;38.29;26.34;101131.19;5008997;28;20686;-67
2023/08/10 09:01:01;;;;;;;1.93;1.87;;;38.40;50.70;;;37.83;26.27;101128.63;5031431;28;20692;-68
2023/08/10 09:03:28;;;;;;;2.17;2.07;;;38.00;50.70;;;37.55;26.31;101126.53;5045868;28;20620;-66
2023/08/10 09:05:55;;;;;;;2.07;1.97;;;37.40;51.20;;;37.16;27.51;101122.78;5046893;28;20644;-68
2023/08/10 09:08:23;;;;;;;2.33;2.10;;;36.80;51.60;;;36.52;27.24;101115.09;5031780;28;20671;-69
2023/08/10 09:10:50;;;;;;;2.60;2.50;;;36.10;52.10;;;35.61;28.94;101110.41;5035367;28;20731;-67
2023/08/10 09:13:21;;;;;;;2.73;2.63;;;35.20;53.40;;;34.75;30.33;101107.06;5031537;28;20723;-67
2023/08/10 09:16:13;;;;;;;2.87;2.77;;;34.30;54.10;;;33.82;31.11;101110.03;5014088;28;20640;-68
2023/08/10 09:18:43;;;;;;;1.87;1.80;;;33.50;55.50;;;32.92;32.84;101099.47;5032156;28;20763;-67
2023/08/10 09:21:20;;;;;;;2.53;2.40;;;32.70;56.70;;;32.14;34.18;101102.09;5040065;28;20675;-66
2023/08/10 09:23:53;;;;;;;2.00;1.97;;;31.90;57.80;;;31.42;34.87;101091.91;5028919;28;20621;-67
2023/08/10 09:26:22;;;;;;;2.03;2.00;;;31.20;58.70;;;30.79;35.37;101093.56;5031311;28;20783;-67
2023/08/10 09:28:50;;;;;;;2.07;1.97;;;30.50;58.90;;;30.25;37.24;101086.44;5021137;28;21107;-68
2023/08/10 09:31:27;;;;;;;1.60;1.53;;;30.00;60.60;;;29.69;38.14;101086.69;5036560;28;20701;-67
2023/08/10 09:33:57;;;;;;;1.87;1.77;;;29.40;61.70;;;29.27;39.16;101088.38;5019729;28;20635;-67
2023/08/10 09:36:26;;;;;;;1.83;1.73;;;29.00;63.40;;;28.93;39.61;101084.31;5023789;28;20643;-66
2023/08/10 09:38:54;;;;;;;2.03;1.93;;;28.60;63.30;;;28.64;40.17;101079.59;5019807;28;20668;-67
2023/08/10 09:41:23;;;;;;;2.00;1.90;;;28.30;64.20;;;28.40;38.85;101070.44;5016009;28;20673;-67
2023/08/10 09:43:51;;;;;;;2.83;2.63;;;28.00;62.20;;;28.32;40.21;101067.97;5020219;28;20673;-66
2023/08/10 09:46:18;;;;;;;3.80;2.70;;;27.90;64.20;;;28.06;40.89;101065.44;5028587;28;20624;-66
2023/08/10 09:48:49;;;;;;;13.00;2.40;;;27.70;65.10;;;27.91;40.21;101059.50;5024529;28;20668;-70
2023/08/10 09:51:17;;;;;;;2.40;2.20;;;27.50;63.90;;;27.76;40.39;101058.13;5039769;28;20632;-68
2023/08/10 09:53:44;;;;;;;7.50;4.50;;;27.30;64.40;;;27.46;40.51;101063.97;5041111;28;21102;-68
2023/08/10 09:56:11;;;;;;;4.80;4.33;;;27.10;64.30;;;27.29;40.67;101057.38;5024721;28;21225;-66
2023/08/10 09:58:41;;;;;;;5.53;4.33;;;26.90;65.00;;;27.23;41.38;101062.75;5027009;28;20738;-67
2023/08/10 10:01:09;;;;;;;7.43;5.20;;;26.80;66.00;;;27.20;42.62;101058.63;5030438;28;20723;-67
2023/08/10 10:03:43;;;;;;;8.97;6.00;;;26.80;67.10;;;27.22;42.45;101066.44;5022944;28;21720;-66
2023/08/10 10:06:13;;;;;;;9.53;5.50;;;26.80;67.40;;;27.46;42.33;101069.34;5025258;28;21012;-67
2023/08/10 10:08:56;;;;;;;4.97;4.10;;;27.10;67.20;;;27.82;41.64;101067.97;5025394;28;21692;-66
2023/08/10 10:11:24;;;;;;;6.33;5.30;;;27.50;66.20;;;28.20;39.88;101066.19;5012533;28;20621;-66
2023/08/10 10:13:52;;;;;;;5.00;4.03;;;28.00;65.00;;;28.85;38.80;101065.81;5031615;28;21225;-67
2023/08/10 10:16:19;;;;;;;4.67;4.27;;;28.70;63.80;;;29.43;38.17;101062.81;5025540;28;20739;-66